createdAt,value
2018-01-01T00:00:21.820Z,0.00
2018-01-01T00:01:21.824Z,0.00
2018-01-01T00:03:15.228Z,0.00
2018-01-01T00:04:15.211Z,0.00
2018-01-01T00:06:08.594Z,0.00
2018-01-01T00:07:08.609Z,0.00
2018-01-01T00:09:01.999Z,0.00
2018-01-01T00:10:01.984Z,0.00
2018-01-01T00:11:55.376Z,0.00
2018-01-01T00:12:55.415Z,0.00
2018-01-01T00:14:48.779Z,0.00
2018-01-01T00:15:48.763Z,0.00
2018-01-01T00:17:42.176Z,0.00
2018-01-01T00:18:42.149Z,0.00
2018-01-01T00:20:35.535Z,0.00
2018-01-01T00:21:35.535Z,0.00
2018-01-01T00:23:28.940Z,0.00
2018-01-01T00:24:28.920Z,0.00
2018-01-01T00:26:22.322Z,0.00
2018-01-01T00:27:22.330Z,0.00
2018-01-01T00:29:15.736Z,0.00
2018-01-01T00:30:15.711Z,0.00
2018-01-01T00:32:09.095Z,0.00
2018-01-01T00:33:09.099Z,0.00
2018-01-01T00:35:02.513Z,0.00
2018-01-01T00:36:02.494Z,0.00
2018-01-01T00:37:55.901Z,0.00
2018-01-01T00:38:55.886Z,0.00
2018-01-01T00:40:49.266Z,0.00
2018-01-01T00:41:49.266Z,0.00
2018-01-01T00:43:42.680Z,0.00
2018-01-01T00:44:42.654Z,0.00
2018-01-01T00:46:36.038Z,0.00
2018-01-01T00:47:36.044Z,0.00
2018-01-01T00:49:29.440Z,0.00
2018-01-01T00:50:29.421Z,0.00
2018-01-01T00:52:22.845Z,0.00
2018-01-01T00:53:22.810Z,0.00
2018-01-01T00:55:16.287Z,0.00
2018-01-01T00:56:16.265Z,0.00
2018-01-01T00:58:09.670Z,0.00
2018-01-01T00:59:09.655Z,0.00
2018-01-01T01:01:03.058Z,0.00
2018-01-01T01:02:03.039Z,0.00
2018-01-01T01:03:56.443Z,0.00
2018-01-01T01:04:56.427Z,0.00
2018-01-01T01:06:49.821Z,0.00
2018-01-01T01:07:49.822Z,0.00
2018-01-01T01:09:43.226Z,0.00
2018-01-01T01:10:43.226Z,0.00
2018-01-01T01:12:36.591Z,0.00
2018-01-01T01:13:36.612Z,0.00
2018-01-01T01:15:29.998Z,0.00
2018-01-01T01:16:29.982Z,0.00
2018-01-01T01:18:23.373Z,0.00
2018-01-01T01:19:23.377Z,0.00
2018-01-01T01:21:16.780Z,0.00
2018-01-01T01:22:16.771Z,0.00
2018-01-01T01:24:10.177Z,0.00
2018-01-01T01:25:10.158Z,0.00
2018-01-01T01:27:03.546Z,0.00
2018-01-01T01:28:03.549Z,0.00
2018-01-01T01:29:56.950Z,0.00
2018-01-01T01:30:56.934Z,0.00
2018-01-01T01:32:50.324Z,0.00
2018-01-01T01:33:50.320Z,0.00
2018-01-01T01:35:43.722Z,0.00
2018-01-01T01:36:43.708Z,0.00
2018-01-01T01:38:37.090Z,0.00
2018-01-01T01:39:37.092Z,0.00
2018-01-01T01:41:30.501Z,0.00
2018-01-01T01:42:30.484Z,0.00
2018-01-01T01:44:23.888Z,0.00
2018-01-01T01:45:23.871Z,0.00
2018-01-01T01:47:17.265Z,0.00
2018-01-01T01:48:17.262Z,0.00
2018-01-01T01:50:10.667Z,0.00
2018-01-01T01:51:10.650Z,0.00
2018-01-01T01:53:04.035Z,0.00
2018-01-01T01:54:04.043Z,0.00
2018-01-01T01:55:57.437Z,0.00
2018-01-01T01:56:57.443Z,0.00
2018-01-01T01:58:50.810Z,0.00
2018-01-01T01:59:50.808Z,0.00
2018-01-01T02:01:44.211Z,0.00
2018-01-01T02:02:44.195Z,0.00
2018-01-01T02:04:37.577Z,0.00
2018-01-01T02:05:37.583Z,0.00
2018-01-01T02:07:30.987Z,0.00
2018-01-01T02:08:30.969Z,0.00
2018-01-01T02:10:24.374Z,0.00
2018-01-01T02:11:24.358Z,0.00
2018-01-01T02:13:17.740Z,0.00
2018-01-01T02:14:17.742Z,0.00
2018-01-01T02:16:11.147Z,0.00
2018-01-01T02:17:11.128Z,0.00
2018-01-01T02:19:04.512Z,0.00
2018-01-01T02:20:04.520Z,0.00
2018-01-01T02:21:57.920Z,0.00
2018-01-01T02:22:57.911Z,0.00
2018-01-01T02:24:51.294Z,0.00
2018-01-01T02:25:51.298Z,0.00
2018-01-01T02:27:44.697Z,0.00
2018-01-01T02:28:44.684Z,0.00
2018-01-01T02:30:38.065Z,0.00
2018-01-01T02:31:38.070Z,0.00
2018-01-01T02:33:31.470Z,0.00
2018-01-01T02:34:31.454Z,0.00
2018-01-01T02:36:24.841Z,0.00
2018-01-01T02:37:24.845Z,0.00
2018-01-01T02:39:18.246Z,0.00
2018-01-01T02:40:18.234Z,0.00
2018-01-01T02:42:11.649Z,0.00
2018-01-01T02:43:11.615Z,0.00
2018-01-01T02:45:05.000Z,0.00
2018-01-01T02:46:05.006Z,0.00
2018-01-01T02:47:58.404Z,0.00
2018-01-01T02:48:58.396Z,0.00
2018-01-01T02:50:51.776Z,0.00
2018-01-01T02:51:51.778Z,0.00
2018-01-01T02:53:45.184Z,0.00
2018-01-01T02:54:45.165Z,0.00
2018-01-01T02:56:38.560Z,0.00
2018-01-01T02:57:38.553Z,0.00
2018-01-01T02:59:31.950Z,0.00
2018-01-01T03:00:31.936Z,0.00
2018-01-01T03:02:25.320Z,0.00
2018-01-01T03:03:25.322Z,0.00
2018-01-01T03:05:18.726Z,0.00
2018-01-01T03:06:18.708Z,0.00
2018-01-01T03:08:12.134Z,0.00
2018-01-01T03:09:12.096Z,0.00
2018-01-01T03:11:05.478Z,0.00
2018-01-01T03:12:05.482Z,0.00
2018-01-01T03:13:58.889Z,0.00
2018-01-01T03:14:58.872Z,0.00
2018-01-01T03:16:52.263Z,0.00
2018-01-01T03:17:52.265Z,0.00
2018-01-01T03:19:45.666Z,0.00
2018-01-01T03:20:45.653Z,0.00
2018-01-01T03:22:39.035Z,0.00
2018-01-01T03:23:39.040Z,0.00
2018-01-01T03:25:32.439Z,0.00
2018-01-01T03:26:32.427Z,0.00
2018-01-01T03:28:25.810Z,0.00
2018-01-01T03:29:25.813Z,0.00
2018-01-01T03:31:19.214Z,0.00
2018-01-01T03:32:19.198Z,0.00
2018-01-01T03:34:12.583Z,0.00
2018-01-01T03:35:12.583Z,0.00
2018-01-01T03:37:05.985Z,0.00
2018-01-01T03:38:05.968Z,0.00
2018-01-01T03:39:59.374Z,0.00
2018-01-01T03:40:59.356Z,0.00
2018-01-01T03:42:52.739Z,0.00
2018-01-01T03:43:52.743Z,0.00
2018-01-01T03:45:46.142Z,0.00
2018-01-01T03:46:46.127Z,0.00
2018-01-01T03:48:39.524Z,0.00
2018-01-01T03:49:39.516Z,0.00
2018-01-01T03:51:32.939Z,0.00
2018-01-01T03:52:32.909Z,0.00
2018-01-01T03:54:26.293Z,0.00
2018-01-01T03:55:26.297Z,0.00
2018-01-01T03:57:27.323Z,0.00
2018-01-01T03:58:19.679Z,0.00
2018-01-01T04:00:13.061Z,0.00
2018-01-01T04:01:13.064Z,0.00
2018-01-01T04:03:06.467Z,0.00
2018-01-01T04:04:06.452Z,0.00
2018-01-01T04:05:59.832Z,0.00
2018-01-01T04:06:59.835Z,0.00
2018-01-01T04:08:53.240Z,0.00
2018-01-01T04:09:53.220Z,0.00
2018-01-01T04:11:46.603Z,0.00
2018-01-01T04:12:46.605Z,0.00
2018-01-01T04:14:40.011Z,0.00
2018-01-01T04:15:39.993Z,0.00
2018-01-01T04:17:33.413Z,0.00
2018-01-01T04:18:33.378Z,0.00
2018-01-01T04:20:26.762Z,0.00
2018-01-01T04:21:26.766Z,0.00
2018-01-01T04:23:20.176Z,0.00
2018-01-01T04:24:20.151Z,0.00
2018-01-01T04:26:13.540Z,0.00
2018-01-01T04:27:13.537Z,0.00
2018-01-01T04:29:06.938Z,0.00
2018-01-01T04:30:06.923Z,0.00
2018-01-01T04:32:00.304Z,0.00
2018-01-01T04:33:00.307Z,0.00
2018-01-01T04:34:53.709Z,0.00
2018-01-01T04:35:53.693Z,0.00
2018-01-01T04:37:47.077Z,0.00
2018-01-01T04:38:47.078Z,0.00
2018-01-01T04:40:40.480Z,0.00
2018-01-01T04:41:40.465Z,0.00
2018-01-01T04:43:33.845Z,0.00
2018-01-01T04:44:33.848Z,0.00
2018-01-01T04:46:27.284Z,0.00
2018-01-01T04:47:27.266Z,0.00
2018-01-01T04:49:20.652Z,0.00
2018-01-01T04:50:20.654Z,0.00
2018-01-01T04:52:14.054Z,0.00
2018-01-01T04:53:14.037Z,0.00
2018-01-01T04:55:07.469Z,0.00
2018-01-01T04:56:07.434Z,0.00
2018-01-01T04:58:00.816Z,0.00
2018-01-01T04:59:00.819Z,0.00
2018-01-01T05:00:55.218Z,0.00
2018-01-01T05:01:55.204Z,0.00
2018-01-01T05:03:48.591Z,0.00
2018-01-01T05:04:48.587Z,0.00
2018-01-01T05:06:41.991Z,0.00
2018-01-01T05:07:41.978Z,0.00
2018-01-01T05:09:35.357Z,0.00
2018-01-01T05:10:35.362Z,0.00
2018-01-01T05:12:28.761Z,0.00
2018-01-01T05:13:28.747Z,0.00
2018-01-01T05:15:22.130Z,0.00
2018-01-01T05:16:22.132Z,0.00
2018-01-01T05:18:15.531Z,0.00
2018-01-01T05:19:15.520Z,0.00
2018-01-01T05:21:08.906Z,0.00
2018-01-01T05:22:08.911Z,0.00
2018-01-01T05:24:02.343Z,0.00
2018-01-01T05:25:02.326Z,0.00
2018-01-01T05:26:55.748Z,0.00
2018-01-01T05:27:55.714Z,0.00
2018-01-01T05:29:49.115Z,0.00
2018-01-01T05:30:49.100Z,0.00
2018-01-01T05:32:42.500Z,0.00
2018-01-01T05:33:42.485Z,0.00
2018-01-01T05:35:35.870Z,0.00
2018-01-01T05:36:35.871Z,0.00
2018-01-01T05:38:29.283Z,0.00
2018-01-01T05:39:29.267Z,0.00
2018-01-01T05:41:22.649Z,0.00
2018-01-01T05:42:22.652Z,0.00
2018-01-01T05:44:16.053Z,0.00
2018-01-01T05:45:16.036Z,0.00
2018-01-01T05:47:09.422Z,0.00
2018-01-01T05:48:09.422Z,0.00
2018-01-01T05:50:02.828Z,0.00
2018-01-01T05:51:02.807Z,0.00
2018-01-01T05:52:56.193Z,0.00
2018-01-01T05:53:56.191Z,0.00
2018-01-01T05:55:49.594Z,0.00
2018-01-01T05:56:49.577Z,0.00
2018-01-01T05:58:42.958Z,0.00
2018-01-01T05:59:42.960Z,0.00
2018-01-01T06:01:36.361Z,0.00
2018-01-01T06:02:36.347Z,0.00
2018-01-01T06:04:29.733Z,0.00
2018-01-01T06:05:29.732Z,0.00
2018-01-01T06:07:23.137Z,0.00
2018-01-01T06:08:23.117Z,0.00
2018-01-01T06:10:16.500Z,0.00
2018-01-01T06:11:16.510Z,0.00
2018-01-01T06:13:09.900Z,0.00
2018-01-01T06:14:09.886Z,0.00
2018-01-01T06:16:03.299Z,0.00
2018-01-01T06:17:03.280Z,0.00
2018-01-01T06:18:56.667Z,0.00
2018-01-01T06:19:56.666Z,0.00
2018-01-01T06:21:50.067Z,0.00
2018-01-01T06:22:50.052Z,0.00
2018-01-01T06:24:43.438Z,0.00
2018-01-01T06:25:43.437Z,0.00
2018-01-01T06:27:36.836Z,0.00
2018-01-01T06:28:36.818Z,0.00
2018-01-01T06:30:30.265Z,0.00
2018-01-01T06:31:30.265Z,0.00
2018-01-01T06:33:23.666Z,0.00
2018-01-01T06:34:23.651Z,0.00
2018-01-01T06:36:17.034Z,0.00
2018-01-01T06:37:17.036Z,0.00
2018-01-01T06:39:10.452Z,0.00
2018-01-01T06:40:10.423Z,0.00
2018-01-01T06:42:03.802Z,0.00
2018-01-01T06:43:03.807Z,0.00
2018-01-01T06:44:57.201Z,4.00
2018-01-01T06:45:57.189Z,4.00
2018-01-01T06:47:50.570Z,4.00
2018-01-01T06:48:50.580Z,4.00
2018-01-01T06:50:43.977Z,4.00
2018-01-01T06:51:43.979Z,4.00
2018-01-01T06:53:37.338Z,12.00
2018-01-01T06:54:37.342Z,16.00
2018-01-01T06:56:30.746Z,16.00
2018-01-01T06:57:30.726Z,20.00
2018-01-01T06:59:24.117Z,28.00
2018-01-01T07:00:24.122Z,28.00
2018-01-01T07:02:17.552Z,36.00
2018-01-01T07:03:17.582Z,40.00
2018-01-01T07:05:10.913Z,48.00
2018-01-01T07:06:10.911Z,56.00
2018-01-01T07:08:04.314Z,72.00
2018-01-01T07:09:04.298Z,76.00
2018-01-01T07:10:57.676Z,88.00
2018-01-01T07:11:57.681Z,92.00
2018-01-01T07:13:51.080Z,104.00
2018-01-01T07:14:51.064Z,116.00
2018-01-01T07:16:45.450Z,132.00
2018-01-01T07:17:45.447Z,148.00
2018-01-01T07:19:38.859Z,188.00
2018-01-01T07:20:38.860Z,216.00
2018-01-01T07:22:32.266Z,260.00
2018-01-01T07:23:32.267Z,288.00
2018-01-01T07:25:25.668Z,324.00
2018-01-01T07:26:25.651Z,340.00
2018-01-01T07:28:19.044Z,380.00
2018-01-01T07:29:19.052Z,396.00
2018-01-01T07:31:12.448Z,424.00
2018-01-01T07:32:12.433Z,440.00
2018-01-01T07:34:05.812Z,476.00
2018-01-01T07:35:05.817Z,496.00
2018-01-01T07:36:59.215Z,544.00
2018-01-01T07:37:59.200Z,580.00
2018-01-01T07:39:52.581Z,604.00
2018-01-01T07:40:52.586Z,640.00
2018-01-01T07:42:45.986Z,620.00
2018-01-01T07:43:45.971Z,592.00
2018-01-01T07:45:39.362Z,684.00
2018-01-01T07:46:39.364Z,732.00
2018-01-01T07:48:32.772Z,852.00
2018-01-01T07:49:32.749Z,856.00
2018-01-01T07:51:26.131Z,856.00
2018-01-01T07:52:26.145Z,876.00
2018-01-01T07:54:19.536Z,852.00
2018-01-01T07:55:19.521Z,888.00
2018-01-01T07:57:12.935Z,992.00
2018-01-01T07:58:12.909Z,996.00
2018-01-01T08:00:06.319Z,992.00
2018-01-01T08:01:06.301Z,1064.00
2018-01-01T08:02:59.702Z,1132.00
2018-01-01T08:03:59.687Z,1168.00
2018-01-01T08:05:53.076Z,1156.00
2018-01-01T08:06:53.073Z,1224.00
2018-01-01T08:08:46.483Z,1324.00
2018-01-01T08:09:46.467Z,1348.00
2018-01-01T08:11:39.878Z,1576.00
2018-01-01T08:12:39.860Z,1692.00
2018-01-01T08:14:33.257Z,1840.00
2018-01-01T08:15:33.237Z,1876.00
2018-01-01T08:17:26.619Z,1960.00
2018-01-01T08:18:26.623Z,1984.00
2018-01-01T08:20:20.037Z,2008.00
2018-01-01T08:21:20.007Z,2052.00
2018-01-01T08:23:13.389Z,2136.00
2018-01-01T08:24:13.392Z,2224.00
2018-01-01T08:26:06.795Z,2360.00
2018-01-01T08:27:06.785Z,2412.00
2018-01-01T08:29:00.187Z,2420.00
2018-01-01T08:30:00.163Z,2404.00
2018-01-01T08:31:53.550Z,2508.00
2018-01-01T08:32:53.549Z,2672.00
2018-01-01T08:34:46.967Z,2880.00
2018-01-01T08:35:46.945Z,2876.00
2018-01-01T08:37:40.328Z,2824.00
2018-01-01T08:38:40.328Z,2824.00
2018-01-01T08:40:33.767Z,2836.00
2018-01-01T08:41:33.726Z,2848.00
2018-01-01T08:43:27.109Z,2880.00
2018-01-01T08:44:27.112Z,2972.00
2018-01-01T08:46:20.520Z,3104.00
2018-01-01T08:47:20.506Z,3108.00
2018-01-01T08:49:13.892Z,3212.00
2018-01-01T08:50:13.895Z,3256.00
2018-01-01T08:52:07.316Z,3344.00
2018-01-01T08:53:07.310Z,3328.00
2018-01-01T08:55:00.674Z,3188.00
2018-01-01T08:56:00.676Z,3168.00
2018-01-01T08:57:54.082Z,3352.00
2018-01-01T08:58:54.064Z,3400.00
2018-01-01T09:00:47.450Z,3488.00
2018-01-01T09:01:47.453Z,3600.00
2018-01-01T09:03:40.850Z,3904.00
2018-01-01T09:04:40.839Z,4040.00
2018-01-01T09:06:34.248Z,4128.00
2018-01-01T09:07:34.252Z,4188.00
2018-01-01T09:09:27.662Z,4428.00
2018-01-01T09:10:27.645Z,4428.00
2018-01-01T09:12:21.070Z,4064.00
2018-01-01T09:13:21.042Z,4000.00
2018-01-01T09:15:14.431Z,4056.00
2018-01-01T09:16:14.430Z,4064.00
2018-01-01T09:18:07.842Z,3580.00
2018-01-01T09:19:07.827Z,3296.00
2018-01-01T09:21:01.264Z,3144.00
2018-01-01T09:22:01.265Z,3160.00
2018-01-01T09:23:54.690Z,4380.00
2018-01-01T09:24:54.662Z,4680.00
2018-01-01T09:26:48.046Z,5456.00
2018-01-01T09:27:48.051Z,5312.00
2018-01-01T09:29:41.452Z,4800.00
2018-01-01T09:30:41.438Z,3904.00
2018-01-01T09:32:34.821Z,2712.00
2018-01-01T09:33:34.826Z,2176.00
2018-01-01T09:35:28.222Z,2128.00
2018-01-01T09:36:28.208Z,1788.00
2018-01-01T09:38:21.677Z,2088.00
2018-01-01T09:39:21.672Z,2248.00
2018-01-01T09:41:15.087Z,1948.00
2018-01-01T09:42:15.073Z,2160.00
2018-01-01T09:44:09.456Z,2420.00
2018-01-01T09:45:09.460Z,2488.00
2018-01-01T09:47:02.879Z,3592.00
2018-01-01T09:48:02.843Z,3140.00
2018-01-01T09:49:56.260Z,3596.00
2018-01-01T09:50:56.231Z,3348.00
2018-01-01T09:52:49.616Z,3636.00
2018-01-01T09:53:49.620Z,3616.00
2018-01-01T09:55:43.020Z,3452.00
2018-01-01T09:56:43.012Z,2928.00
2018-01-01T09:58:36.398Z,3052.00
2018-01-01T09:59:36.401Z,3164.00
2018-01-01T10:01:29.802Z,2748.00
2018-01-01T10:02:29.787Z,3868.00
2018-01-01T10:04:23.178Z,3712.00
2018-01-01T10:05:23.173Z,3744.00
2018-01-01T10:07:16.575Z,3296.00
2018-01-01T10:08:16.561Z,3320.00
2018-01-01T10:10:09.944Z,3344.00
2018-01-01T10:11:09.948Z,3396.00
2018-01-01T10:13:03.370Z,3932.00
2018-01-01T10:14:03.374Z,4488.00
2018-01-01T10:15:56.746Z,4364.00
2018-01-01T10:16:56.739Z,4180.00
2018-01-01T10:18:50.265Z,4332.00
2018-01-01T10:19:50.271Z,4072.00
2018-01-01T10:21:43.535Z,2808.00
2018-01-01T10:22:43.536Z,4476.00
2018-01-01T10:24:36.937Z,5372.00
2018-01-01T10:25:36.928Z,3552.00
2018-01-01T10:27:30.308Z,5104.00
2018-01-01T10:28:30.341Z,4828.00
2018-01-01T10:30:23.737Z,4592.00
2018-01-01T10:31:23.709Z,5176.00
2018-01-01T10:33:17.125Z,6332.00
2018-01-01T10:34:17.117Z,7820.00
2018-01-01T10:36:10.501Z,7832.00
2018-01-01T10:37:10.505Z,7160.00
2018-01-01T10:39:03.906Z,7244.00
2018-01-01T10:40:03.978Z,5328.00
2018-01-01T10:41:57.354Z,5900.00
2018-01-01T10:42:57.357Z,4900.00
2018-01-01T10:44:50.795Z,5168.00
2018-01-01T10:45:50.775Z,4668.00
2018-01-01T10:47:44.174Z,5512.00
2018-01-01T10:48:44.183Z,4684.00
2018-01-01T10:50:37.577Z,4684.00
2018-01-01T10:51:37.565Z,3988.00
2018-01-01T10:53:32.004Z,3824.00
2018-01-01T10:54:31.951Z,4740.00
2018-01-01T10:56:25.334Z,22496.00
2018-01-01T10:57:25.351Z,6468.00
2018-01-01T10:59:18.742Z,20064.00
2018-01-01T11:00:18.733Z,10532.00
2018-01-01T11:02:12.126Z,4172.00
2018-01-01T11:03:12.116Z,4900.00
2018-01-01T11:05:06.536Z,12640.00
2018-01-01T11:06:06.559Z,8956.00
2018-01-01T11:08:00.958Z,7368.00
2018-01-01T11:09:00.929Z,3644.00
2018-01-01T11:10:54.423Z,4832.00
2018-01-01T11:11:54.339Z,8272.00
2018-01-01T11:13:48.740Z,24128.00
2018-01-01T11:14:48.725Z,8436.00
2018-01-01T11:16:42.151Z,7540.00
2018-01-01T11:17:42.134Z,16672.00
2018-01-01T11:19:35.734Z,22752.00
2018-01-01T11:20:35.728Z,4460.00
2018-01-01T11:22:29.139Z,3856.00
2018-01-01T11:23:29.141Z,3976.00
2018-01-01T11:25:22.528Z,4156.00
2018-01-01T11:26:22.547Z,23520.00
2018-01-01T11:28:16.946Z,7584.00
2018-01-01T11:29:16.922Z,26848.00
2018-01-01T11:31:10.524Z,23904.00
2018-01-01T11:32:10.527Z,6648.00
2018-01-01T11:34:03.946Z,6496.00
2018-01-01T11:35:03.923Z,7488.00
2018-01-01T11:36:57.348Z,9048.00
2018-01-01T11:37:57.326Z,8064.00
2018-01-01T11:39:51.910Z,12528.00
2018-01-01T11:40:51.943Z,8692.00
2018-01-01T11:42:45.716Z,4816.00
2018-01-01T11:43:45.717Z,17920.00
2018-01-01T11:45:39.137Z,14312.00
2018-01-01T11:46:39.122Z,9896.00
2018-01-01T11:48:32.517Z,5076.00
2018-01-01T11:49:41.327Z,10304.00
2018-01-01T11:51:25.904Z,11720.00
2018-01-01T11:52:25.925Z,7144.00
2018-01-01T11:54:19.359Z,11488.00
2018-01-01T11:55:19.313Z,11968.00
2018-01-01T11:57:12.718Z,11508.00
2018-01-01T11:58:12.700Z,10740.00
2018-01-01T12:00:06.092Z,10516.00
2018-01-01T12:01:06.101Z,7728.00
2018-01-01T12:02:59.524Z,4672.00
2018-01-01T12:03:59.496Z,5020.00
2018-01-01T12:05:52.879Z,6992.00
2018-01-01T12:06:52.882Z,3852.00
2018-01-01T12:08:46.296Z,7180.00
2018-01-01T12:09:46.286Z,8632.00
2018-01-01T12:11:39.675Z,9564.00
2018-01-01T12:12:39.683Z,5664.00
2018-01-01T12:14:33.097Z,4424.00
2018-01-01T12:15:33.103Z,8292.00
2018-01-01T12:17:26.470Z,6236.00
2018-01-01T12:18:26.482Z,6508.00
2018-01-01T12:20:20.886Z,4316.00
2018-01-01T12:21:20.865Z,9452.00
2018-01-01T12:23:14.275Z,9692.00
2018-01-01T12:24:14.287Z,8480.00
2018-01-01T12:26:07.691Z,7520.00
2018-01-01T12:27:07.666Z,8276.00
2018-01-01T12:29:01.059Z,8052.00
2018-01-01T12:30:01.064Z,3744.00
2018-01-01T12:31:54.480Z,8028.00
2018-01-01T12:32:54.468Z,3684.00
2018-01-01T12:34:47.867Z,5760.00
2018-01-01T12:35:47.865Z,3496.00
2018-01-01T12:37:41.276Z,3352.00
2018-01-01T12:38:41.267Z,3516.00
2018-01-01T12:40:34.689Z,8356.00
2018-01-01T12:41:34.668Z,4800.00
2018-01-01T12:43:28.073Z,6800.00
2018-01-01T12:44:28.060Z,4248.00
2018-01-01T12:46:22.452Z,4008.00
2018-01-01T12:47:22.452Z,4088.00
2018-01-01T12:49:15.857Z,5696.00
2018-01-01T12:50:15.849Z,3880.00
2018-01-01T12:52:09.260Z,5832.00
2018-01-01T12:53:09.232Z,3060.00
2018-01-01T12:55:02.636Z,3020.00
2018-01-01T12:56:02.624Z,3772.00
2018-01-01T12:57:56.008Z,5660.00
2018-01-01T12:58:56.018Z,6132.00
2018-01-01T13:00:49.420Z,6100.00
2018-01-01T13:01:49.404Z,6020.00
2018-01-01T13:03:42.833Z,4872.00
2018-01-01T13:04:42.793Z,5260.00
2018-01-01T13:06:36.194Z,5220.00
2018-01-01T13:07:36.194Z,5976.00
2018-01-01T13:09:29.623Z,4664.00
2018-01-01T13:10:29.595Z,4144.00
2018-01-01T13:12:23.190Z,4196.00
2018-01-01T13:13:23.205Z,4132.00
2018-01-01T13:15:16.598Z,3608.00
2018-01-01T13:16:16.589Z,4220.00
2018-01-01T13:18:10.971Z,3992.00
2018-01-01T13:19:10.971Z,4152.00
2018-01-01T13:21:04.380Z,4540.00
2018-01-01T13:22:04.365Z,4320.00
2018-01-01T13:23:57.752Z,4320.00
2018-01-01T13:24:57.753Z,4720.00
2018-01-01T13:26:51.160Z,3356.00
2018-01-01T13:27:51.143Z,3284.00
2018-01-01T13:29:44.530Z,3280.00
2018-01-01T13:30:44.532Z,3428.00
2018-01-01T13:32:37.949Z,3580.00
2018-01-01T13:33:37.924Z,3480.00
2018-01-01T13:35:31.315Z,3204.00
2018-01-01T13:36:31.319Z,3168.00
2018-01-01T13:38:24.723Z,3076.00
2018-01-01T13:39:24.720Z,3032.00
2018-01-01T13:41:18.103Z,3016.00
2018-01-01T13:42:18.104Z,2992.00
2018-01-01T13:44:11.510Z,2924.00
2018-01-01T13:45:11.508Z,2908.00
2018-01-01T13:47:04.895Z,2892.00
2018-01-01T13:48:04.901Z,2924.00
2018-01-01T13:49:58.336Z,2880.00
2018-01-01T13:50:58.326Z,2828.00
2018-01-01T13:52:51.747Z,2752.00
2018-01-01T13:53:51.718Z,2744.00
2018-01-01T13:55:45.098Z,2848.00
2018-01-01T13:56:45.100Z,2924.00
2018-01-01T13:58:38.511Z,3100.00
2018-01-01T13:59:38.496Z,2720.00
2018-01-01T14:01:31.884Z,2504.00
2018-01-01T14:02:31.924Z,2516.00
2018-01-01T14:04:25.291Z,2744.00
2018-01-01T14:05:25.275Z,2680.00
2018-01-01T14:07:18.664Z,2876.00
2018-01-01T14:08:18.661Z,2604.00
2018-01-01T14:10:12.073Z,2524.00
2018-01-01T14:11:12.115Z,2328.00
2018-01-01T14:13:05.445Z,2112.00
2018-01-01T14:14:05.448Z,2096.00
2018-01-01T14:15:58.853Z,1952.00
2018-01-01T14:16:58.845Z,1888.00
2018-01-01T14:18:52.260Z,1860.00
2018-01-01T14:19:52.264Z,1792.00
2018-01-01T14:21:45.682Z,1776.00
2018-01-01T14:22:45.653Z,1708.00
2018-01-01T14:24:39.054Z,1668.00
2018-01-01T14:25:39.041Z,1656.00
2018-01-01T14:27:32.465Z,1460.00
2018-01-01T14:28:32.448Z,1348.00
2018-01-01T14:30:25.824Z,1240.00
2018-01-01T14:31:25.827Z,1192.00
2018-01-01T14:33:19.229Z,1120.00
2018-01-01T14:34:19.214Z,1096.00
2018-01-01T14:36:12.605Z,1060.00
2018-01-01T14:37:12.614Z,1052.00
2018-01-01T14:39:06.012Z,1076.00
2018-01-01T14:40:06.005Z,1124.00
2018-01-01T14:41:59.414Z,1204.00
2018-01-01T14:42:59.396Z,1244.00
2018-01-01T14:44:52.776Z,1328.00
2018-01-01T14:45:52.780Z,1220.00
2018-01-01T14:47:46.184Z,1020.00
2018-01-01T14:48:46.169Z,968.00
2018-01-01T14:50:39.560Z,964.00
2018-01-01T14:51:39.566Z,1016.00
2018-01-01T14:53:32.970Z,1088.00
2018-01-01T14:54:32.953Z,1088.00
2018-01-01T14:56:26.340Z,988.00
2018-01-01T14:57:26.339Z,956.00
2018-01-01T14:59:27.352Z,964.00
2018-01-01T15:00:27.340Z,984.00
2018-01-01T15:02:13.112Z,972.00
2018-01-01T15:03:13.112Z,944.00
2018-01-01T15:05:06.526Z,888.00
2018-01-01T15:06:06.498Z,868.00
2018-01-01T15:07:59.887Z,856.00
2018-01-01T15:08:59.891Z,848.00
2018-01-01T15:10:53.314Z,784.00
2018-01-01T15:11:53.276Z,736.00
2018-01-01T15:13:46.861Z,672.00
2018-01-01T15:14:46.883Z,616.00
2018-01-01T15:16:40.296Z,460.00
2018-01-01T15:17:40.272Z,384.00
2018-01-01T15:19:33.653Z,288.00
2018-01-01T15:20:33.655Z,264.00
2018-01-01T15:22:27.057Z,224.00
2018-01-01T15:23:27.042Z,208.00
2018-01-01T15:25:20.440Z,176.00
2018-01-01T15:26:20.437Z,160.00
2018-01-01T15:28:13.839Z,132.00
2018-01-01T15:29:13.825Z,120.00
2018-01-01T15:31:07.210Z,104.00
2018-01-01T15:32:07.211Z,100.00
2018-01-01T15:34:00.623Z,92.00
2018-01-01T15:35:00.607Z,92.00
2018-01-01T15:36:54.247Z,88.00
2018-01-01T15:37:54.200Z,84.00
2018-01-01T15:39:47.581Z,76.00
2018-01-01T15:40:47.602Z,68.00
2018-01-01T15:42:40.994Z,60.00
2018-01-01T15:43:40.984Z,56.00
2018-01-01T15:45:34.368Z,44.00
2018-01-01T15:46:34.368Z,40.00
2018-01-01T15:48:27.775Z,32.00
2018-01-01T15:49:27.752Z,32.00
2018-01-01T15:51:21.202Z,28.00
2018-01-01T15:52:21.141Z,28.00
2018-01-01T15:54:15.550Z,24.00
2018-01-01T15:55:15.551Z,20.00
2018-01-01T15:57:08.937Z,16.00
2018-01-01T15:58:08.924Z,16.00
2018-01-01T16:00:02.323Z,12.00
2018-01-01T16:01:02.311Z,8.00
2018-01-01T16:02:55.694Z,8.00
2018-01-01T16:03:55.709Z,4.00
2018-01-01T16:05:49.102Z,4.00
2018-01-01T16:06:49.084Z,4.00
2018-01-01T16:08:45.549Z,4.00
2018-01-01T16:09:45.473Z,4.00
2018-01-01T16:11:39.953Z,0.00
2018-01-01T16:12:39.912Z,0.00
2018-01-01T16:14:34.338Z,0.00
2018-01-01T16:15:34.315Z,0.00
2018-01-01T16:17:28.209Z,0.00
2018-01-01T16:18:27.932Z,0.00
2018-01-01T16:20:21.306Z,0.00
2018-01-01T16:21:21.293Z,0.00
2018-01-01T16:23:14.724Z,0.00
2018-01-01T16:24:14.831Z,0.00
2018-01-01T16:26:08.143Z,0.00
2018-01-01T16:27:08.091Z,0.00
2018-01-01T16:29:01.580Z,0.00
2018-01-01T16:30:01.580Z,0.00
2018-01-01T16:31:54.995Z,0.00
2018-01-01T16:32:54.937Z,0.00
2018-01-01T16:34:48.362Z,0.00
2018-01-01T16:35:48.333Z,0.00
2018-01-01T16:37:41.712Z,0.00
2018-01-01T16:38:41.717Z,0.00
2018-01-01T16:40:35.137Z,0.00
2018-01-01T16:41:35.112Z,0.00
2018-01-01T16:43:28.513Z,0.00
2018-01-01T16:44:28.497Z,0.00
2018-01-01T16:46:21.422Z,0.00
2018-01-01T16:47:21.397Z,0.00
2018-01-01T16:49:14.792Z,0.00
2018-01-01T16:50:14.791Z,0.00
2018-01-01T16:52:08.200Z,0.00
2018-01-01T16:53:08.181Z,0.00
2018-01-01T16:55:01.633Z,0.00
2018-01-01T16:56:01.561Z,0.00
2018-01-01T16:57:54.962Z,0.00
2018-01-01T16:58:54.945Z,0.00
2018-01-01T17:00:48.360Z,0.00
2018-01-01T17:01:48.337Z,0.00
2018-01-01T17:03:41.742Z,0.00
2018-01-01T17:04:41.725Z,0.00
2018-01-01T17:06:35.129Z,0.00
2018-01-01T17:07:35.112Z,0.00
2018-01-01T17:09:28.569Z,0.00
2018-01-01T17:10:28.521Z,0.00
2018-01-01T17:12:21.921Z,0.00
2018-01-01T17:13:21.914Z,0.00
2018-01-01T17:15:15.280Z,0.00
2018-01-01T17:16:15.289Z,0.00
2018-01-01T17:18:08.691Z,0.00
2018-01-01T17:19:08.675Z,0.00
2018-01-01T17:21:02.064Z,0.00
2018-01-01T17:22:02.063Z,0.00
2018-01-01T17:23:55.467Z,0.00
2018-01-01T17:24:55.449Z,0.00
2018-01-01T17:26:48.849Z,0.00
2018-01-01T17:27:48.833Z,0.00
2018-01-01T17:29:42.248Z,0.00
2018-01-01T17:30:42.239Z,0.00
2018-01-01T17:32:35.647Z,0.00
2018-01-01T17:33:35.620Z,0.00
2018-01-01T17:35:29.037Z,0.00
2018-01-01T17:36:29.001Z,0.00
2018-01-01T17:38:22.403Z,0.00
2018-01-01T17:39:22.390Z,0.00
2018-01-01T17:41:15.783Z,0.00
2018-01-01T17:42:15.782Z,0.00
2018-01-01T17:44:09.177Z,0.00
2018-01-01T17:45:09.173Z,0.00
2018-01-01T17:47:02.538Z,0.00
2018-01-01T17:48:02.540Z,0.00
2018-01-01T17:49:55.940Z,0.00
2018-01-01T17:50:55.982Z,0.00
2018-01-01T17:52:49.323Z,0.00
2018-01-01T17:53:49.320Z,0.00
2018-01-01T17:55:42.731Z,0.00
2018-01-01T17:56:42.698Z,0.00
2018-01-01T17:58:37.083Z,0.00
2018-01-01T17:59:37.085Z,0.00
2018-01-01T18:01:30.507Z,0.00
2018-01-01T18:02:30.468Z,0.00
2018-01-01T18:04:23.857Z,0.00
2018-01-01T18:05:23.868Z,0.00
2018-01-01T18:07:17.325Z,0.00
2018-01-01T18:08:17.311Z,0.00
2018-01-01T18:10:10.731Z,0.00
2018-01-01T18:11:10.693Z,0.00
2018-01-01T18:13:04.076Z,0.00
2018-01-01T18:14:04.082Z,0.00
2018-01-01T18:15:57.477Z,0.00
2018-01-01T18:16:57.461Z,0.00
2018-01-01T18:18:50.860Z,0.00
2018-01-01T18:19:50.857Z,0.00
2018-01-01T18:21:44.326Z,0.00
2018-01-01T18:22:44.292Z,0.00
2018-01-01T18:24:37.673Z,0.00